Airport View

Enter AWOS ICAO identifier for current METAR.

ex. KFNL

KLXV 200053Z AUTO 03004KT 10SM CLR 07/M14 A3024 RMK AO2 SLP121 T00721144

20 Oct 2020 01:02

Frequency: 118.375

Phone: 719-486-2735

Other Area AWOS: KCCU - K7BM - KASE - KAEJ

TAF KASE 192337Z 2000/2024 36005KT P6SM SKC FM200300 21008KT P6SM SCT200 FM201900 31010G19KT P6SM FEW250